sensor_id;sensor_type;location;lat;lon;timestamp;P1;durP1;ratioP1;P2;durP2;ratioP2
73168;SDS011;61379;59.732;30.468;2023-12-20T00:00:22;7.00;;;6.50;;
73168;SDS011;61379;59.732;30.468;2023-12-20T00:02:51;7.22;;;6.53;;
73168;SDS011;61379;59.732;30.468;2023-12-20T00:05:17;6.85;;;6.45;;
73168;SDS011;61379;59.732;30.468;2023-12-20T00:07:44;7.22;;;6.63;;
73168;SDS011;61379;59.732;30.468;2023-12-20T00:10:11;6.35;;;5.95;;
73168;SDS011;61379;59.732;30.468;2023-12-20T00:12:38;6.97;;;6.55;;
73168;SDS011;61379;59.732;30.468;2023-12-20T00:15:06;7.20;;;6.70;;
73168;SDS011;61379;59.732;30.468;2023-12-20T00:17:33;7.93;;;7.32;;
73168;SDS011;61379;59.732;30.468;2023-12-20T00:20:02;8.02;;;7.43;;
73168;SDS011;61379;59.732;30.468;2023-12-20T00:22:29;7.88;;;7.28;;
73168;SDS011;61379;59.732;30.468;2023-12-20T00:24:56;7.43;;;6.88;;
73168;SDS011;61379;59.732;30.468;2023-12-20T00:27:23;7.28;;;6.78;;
73168;SDS011;61379;59.732;30.468;2023-12-20T00:29:49;7.70;;;7.10;;
73168;SDS011;61379;59.732;30.468;2023-12-20T00:32:16;8.35;;;7.63;;
73168;SDS011;61379;59.732;30.468;2023-12-20T00:34:43;9.23;;;8.43;;
73168;SDS011;61379;59.732;30.468;2023-12-20T00:37:12;7.47;;;6.97;;
73168;SDS011;61379;59.732;30.468;2023-12-20T00:39:39;8.73;;;8.02;;
73168;SDS011;61379;59.732;30.468;2023-12-20T00:42:06;7.88;;;7.28;;
73168;SDS011;61379;59.732;30.468;2023-12-20T00:44:33;8.05;;;7.22;;
73168;SDS011;61379;59.732;30.468;2023-12-20T00:47:00;7.57;;;6.97;;
73168;SDS011;61379;59.732;30.468;2023-12-20T00:49:27;6.93;;;6.43;;
73168;SDS011;61379;59.732;30.468;2023-12-20T00:51:54;7.72;;;7.13;;
73168;SDS011;61379;59.732;30.468;2023-12-20T00:54:22;6.85;;;6.45;;
73168;SDS011;61379;59.732;30.468;2023-12-20T00:56:49;7.30;;;6.78;;
73168;SDS011;61379;59.732;30.468;2023-12-20T00:59:16;7.47;;;6.95;;
73168;SDS011;61379;59.732;30.468;2023-12-20T01:01:43;8.52;;;7.68;;
73168;SDS011;61379;59.732;30.468;2023-12-20T01:04:10;7.20;;;6.80;;
73168;SDS011;61379;59.732;30.468;2023-12-20T01:06:37;7.47;;;7.05;;
73168;SDS011;61379;59.732;30.468;2023-12-20T01:09:04;7.32;;;6.90;;
73168;SDS011;61379;59.732;30.468;2023-12-20T01:11:32;7.68;;;7.20;;
73168;SDS011;61379;59.732;30.468;2023-12-20T01:13:59;7.80;;;7.30;;
73168;SDS011;61379;59.732;30.468;2023-12-20T01:16:26;7.55;;;7.05;;
73168;SDS011;61379;59.732;30.468;2023-12-20T01:18:53;7.43;;;6.95;;
73168;SDS011;61379;59.732;30.468;2023-12-20T01:21:20;8.13;;;7.47;;
73168;SDS011;61379;59.732;30.468;2023-12-20T01:23:46;7.45;;;7.00;;
73168;SDS011;61379;59.732;30.468;2023-12-20T01:26:14;7.40;;;6.82;;
73168;SDS011;61379;59.732;30.468;2023-12-20T01:28:43;7.82;;;7.32;;
73168;SDS011;61379;59.732;30.468;2023-12-20T01:31:10;7.78;;;7.28;;
73168;SDS011;61379;59.732;30.468;2023-12-20T01:33:37;8.75;;;7.80;;
73168;SDS011;61379;59.732;30.468;2023-12-20T01:36:04;8.10;;;7.50;;
73168;SDS011;61379;59.732;30.468;2023-12-20T01:38:31;8.75;;;8.10;;
73168;SDS011;61379;59.732;30.468;2023-12-20T01:40:58;8.38;;;7.75;;
73168;SDS011;61379;59.732;30.468;2023-12-20T01:43:25;8.07;;;7.57;;
73168;SDS011;61379;59.732;30.468;2023-12-20T01:45:54;8.48;;;7.97;;
73168;SDS011;61379;59.732;30.468;2023-12-20T01:48:22;8.07;;;7.57;;
73168;SDS011;61379;59.732;30.468;2023-12-20T01:50:50;8.30;;;7.80;;
73168;SDS011;61379;59.732;30.468;2023-12-20T01:53:17;8.00;;;7.60;;
73168;SDS011;61379;59.732;30.468;2023-12-20T01:55:45;8.18;;;7.55;;
73168;SDS011;61379;59.732;30.468;2023-12-20T01:58:14;8.57;;;7.82;;
73168;SDS011;61379;59.732;30.468;2023-12-20T02:00:41;10.43;;;8.63;;
73168;SDS011;61379;59.732;30.468;2023-12-20T02:03:10;9.13;;;8.52;;
73168;SDS011;61379;59.732;30.468;2023-12-20T02:05:38;9.13;;;8.32;;
73168;SDS011;61379;59.732;30.468;2023-12-20T02:08:06;9.05;;;8.30;;
73168;SDS011;61379;59.732;30.468;2023-12-20T02:10:33;8.98;;;8.43;;
73168;SDS011;61379;59.732;30.468;2023-12-20T02:13:01;9.10;;;8.30;;
73168;SDS011;61379;59.732;30.468;2023-12-20T02:15:28;8.82;;;8.13;;
73168;SDS011;61379;59.732;30.468;2023-12-20T02:17:55;8.00;;;7.40;;
73168;SDS011;61379;59.732;30.468;2023-12-20T02:20:43;9.20;;;8.38;;
73168;SDS011;61379;59.732;30.468;2023-12-20T02:23:12;8.57;;;8.07;;
73168;SDS011;61379;59.732;30.468;2023-12-20T02:25:38;9.52;;;8.73;;
73168;SDS011;61379;59.732;30.468;2023-12-20T02:28:05;8.90;;;8.30;;
73168;SDS011;61379;59.732;30.468;2023-12-20T02:30:33;9.88;;;9.18;;
73168;SDS011;61379;59.732;30.468;2023-12-20T02:33:00;9.23;;;8.63;;
73168;SDS011;61379;59.732;30.468;2023-12-20T02:35:27;9.68;;;8.88;;
73168;SDS011;61379;59.732;30.468;2023-12-20T02:37:54;10.05;;;9.18;;
73168;SDS011;61379;59.732;30.468;2023-12-20T02:40:22;9.63;;;8.90;;
73168;SDS011;61379;59.732;30.468;2023-12-20T02:42:49;10.38;;;9.55;;
73168;SDS011;61379;59.732;30.468;2023-12-20T02:45:16;9.60;;;9.07;;
73168;SDS011;61379;59.732;30.468;2023-12-20T02:47:43;10.45;;;9.50;;
73168;SDS011;61379;59.732;30.468;2023-12-20T02:50:10;10.40;;;9.48;;
73168;SDS011;61379;59.732;30.468;2023-12-20T02:52:37;9.70;;;9.10;;
73168;SDS011;61379;59.732;30.468;2023-12-20T02:55:04;9.20;;;8.70;;
73168;SDS011;61379;59.732;30.468;2023-12-20T02:57:33;15.05;;;9.18;;
73168;SDS011;61379;59.732;30.468;2023-12-20T03:00:01;9.77;;;9.00;;
73168;SDS011;61379;59.732;30.468;2023-12-20T03:02:31;9.45;;;8.77;;
73168;SDS011;61379;59.732;30.468;2023-12-20T03:04:58;9.93;;;9.32;;
73168;SDS011;61379;59.732;30.468;2023-12-20T03:07:25;10.57;;;9.52;;
73168;SDS011;61379;59.732;30.468;2023-12-20T03:09:52;10.20;;;9.50;;
73168;SDS011;61379;59.732;30.468;2023-12-20T03:12:19;10.00;;;9.20;;
73168;SDS011;61379;59.732;30.468;2023-12-20T03:14:47;10.65;;;9.70;;
73168;SDS011;61379;59.732;30.468;2023-12-20T03:17:14;10.45;;;9.20;;
73168;SDS011;61379;59.732;30.468;2023-12-20T03:19:41;9.93;;;9.07;;
73168;SDS011;61379;59.732;30.468;2023-12-20T03:22:08;10.27;;;9.60;;
73168;SDS011;61379;59.732;30.468;2023-12-20T03:24:35;9.57;;;8.98;;
73168;SDS011;61379;59.732;30.468;2023-12-20T03:27:02;11.32;;;10.48;;
73168;SDS011;61379;59.732;30.468;2023-12-20T03:29:29;9.55;;;8.95;;
73168;SDS011;61379;59.732;30.468;2023-12-20T03:31:57;10.25;;;9.45;;
73168;SDS011;61379;59.732;30.468;2023-12-20T03:34:24;9.68;;;8.73;;
73168;SDS011;61379;59.732;30.468;2023-12-20T03:36:51;10.00;;;9.30;;
73168;SDS011;61379;59.732;30.468;2023-12-20T03:39:18;9.70;;;9.00;;
73168;SDS011;61379;59.732;30.468;2023-12-20T03:41:45;10.38;;;9.45;;
73168;SDS011;61379;59.732;30.468;2023-12-20T03:44:12;9.93;;;9.10;;
73168;SDS011;61379;59.732;30.468;2023-12-20T03:46:39;10.00;;;9.27;;
73168;SDS011;61379;59.732;30.468;2023-12-20T03:49:07;9.63;;;9.02;;
73168;SDS011;61379;59.732;30.468;2023-12-20T03:51:34;11.13;;;10.05;;
73168;SDS011;61379;59.732;30.468;2023-12-20T03:54:01;12.38;;;10.00;;
73168;SDS011;61379;59.732;30.468;2023-12-20T03:56:28;9.73;;;9.02;;
73168;SDS011;61379;59.732;30.468;2023-12-20T03:58:55;10.50;;;9.73;;
73168;SDS011;61379;59.732;30.468;2023-12-20T04:01:22;9.60;;;9.10;;
73168;SDS011;61379;59.732;30.468;2023-12-20T04:03:49;9.52;;;8.82;;
73168;SDS011;61379;59.732;30.468;2023-12-20T04:06:18;10.27;;;9.38;;
73168;SDS011;61379;59.732;30.468;2023-12-20T04:08:45;9.45;;;8.85;;
73168;SDS011;61379;59.732;30.468;2023-12-20T04:11:12;10.18;;;9.27;;
73168;SDS011;61379;59.732;30.468;2023-12-20T04:13:38;10.32;;;9.63;;
73168;SDS011;61379;59.732;30.468;2023-12-20T04:16:05;9.73;;;9.10;;
73168;SDS011;61379;59.732;30.468;2023-12-20T04:18:32;10.85;;;10.05;;
73168;SDS011;61379;59.732;30.468;2023-12-20T04:20:59;10.98;;;10.02;;
73168;SDS011;61379;59.732;30.468;2023-12-20T04:23:28;11.00;;;9.98;;
73168;SDS011;61379;59.732;30.468;2023-12-20T04:25:55;9.88;;;9.38;;
73168;SDS011;61379;59.732;30.468;2023-12-20T04:28:21;11.38;;;10.45;;
73168;SDS011;61379;59.732;30.468;2023-12-20T04:30:49;10.40;;;9.60;;
73168;SDS011;61379;59.732;30.468;2023-12-20T04:33:15;9.95;;;9.25;;
73168;SDS011;61379;59.732;30.468;2023-12-20T04:35:42;9.93;;;9.18;;
73168;SDS011;61379;59.732;30.468;2023-12-20T04:38:11;9.68;;;9.15;;
73168;SDS011;61379;59.732;30.468;2023-12-20T04:40:39;9.85;;;9.27;;
73168;SDS011;61379;59.732;30.468;2023-12-20T04:43:07;10.45;;;9.20;;
73168;SDS011;61379;59.732;30.468;2023-12-20T04:45:34;10.38;;;9.50;;
73168;SDS011;61379;59.732;30.468;2023-12-20T04:48:01;9.82;;;9.02;;
73168;SDS011;61379;59.732;30.468;2023-12-20T04:50:29;10.13;;;9.45;;
73168;SDS011;61379;59.732;30.468;2023-12-20T04:52:56;9.38;;;8.88;;
73168;SDS011;61379;59.732;30.468;2023-12-20T04:55:23;10.13;;;9.32;;
73168;SDS011;61379;59.732;30.468;2023-12-20T04:57:51;10.10;;;9.40;;
73168;SDS011;61379;59.732;30.468;2023-12-20T05:00:18;9.15;;;8.55;;
73168;SDS011;61379;59.732;30.468;2023-12-20T05:02:45;9.98;;;9.02;;
73168;SDS011;61379;59.732;30.468;2023-12-20T05:05:12;9.93;;;8.98;;
73168;SDS011;61379;59.732;30.468;2023-12-20T05:07:40;9.50;;;8.55;;
73168;SDS011;61379;59.732;30.468;2023-12-20T05:10:07;10.45;;;9.68;;
73168;SDS011;61379;59.732;30.468;2023-12-20T05:12:34;10.27;;;9.52;;
73168;SDS011;61379;59.732;30.468;2023-12-20T05:15:03;9.50;;;8.80;;
73168;SDS011;61379;59.732;30.468;2023-12-20T05:17:31;9.38;;;8.77;;
73168;SDS011;61379;59.732;30.468;2023-12-20T05:19:58;9.82;;;8.80;;
73168;SDS011;61379;59.732;30.468;2023-12-20T05:22:25;10.02;;;9.13;;
73168;SDS011;61379;59.732;30.468;2023-12-20T05:24:52;9.25;;;8.70;;
73168;SDS011;61379;59.732;30.468;2023-12-20T05:27:19;9.55;;;8.82;;
73168;SDS011;61379;59.732;30.468;2023-12-20T05:29:46;9.60;;;8.85;;
73168;SDS011;61379;59.732;30.468;2023-12-20T05:32:15;10.02;;;9.07;;
73168;SDS011;61379;59.732;30.468;2023-12-20T05:34:41;10.45;;;9.55;;
73168;SDS011;61379;59.732;30.468;2023-12-20T05:37:08;9.95;;;9.18;;
73168;SDS011;61379;59.732;30.468;2023-12-20T05:39:35;9.52;;;8.73;;
73168;SDS011;61379;59.732;30.468;2023-12-20T05:42:02;9.73;;;8.75;;
73168;SDS011;61379;59.732;30.468;2023-12-20T05:44:29;8.60;;;8.07;;
73168;SDS011;61379;59.732;30.468;2023-12-20T05:46:55;9.02;;;8.43;;
73168;SDS011;61379;59.732;30.468;2023-12-20T05:49:23;9.45;;;8.85;;
73168;SDS011;61379;59.732;30.468;2023-12-20T05:51:50;10.25;;;9.43;;
73168;SDS011;61379;59.732;30.468;2023-12-20T05:54:17;9.23;;;8.73;;
73168;SDS011;61379;59.732;30.468;2023-12-20T05:56:44;9.60;;;8.98;;
73168;SDS011;61379;59.732;30.468;2023-12-20T05:59:11;9.52;;;8.82;;
73168;SDS011;61379;59.732;30.468;2023-12-20T06:01:38;8.45;;;7.95;;
73168;SDS011;61379;59.732;30.468;2023-12-20T06:04:05;8.73;;;8.18;;
73168;SDS011;61379;59.732;30.468;2023-12-20T06:06:34;8.95;;;8.30;;
73168;SDS011;61379;59.732;30.468;2023-12-20T06:09:01;12.98;;;9.35;;
73168;SDS011;61379;59.732;30.468;2023-12-20T06:11:28;8.20;;;7.72;;
73168;SDS011;61379;59.732;30.468;2023-12-20T06:13:55;9.05;;;8.55;;
73168;SDS011;61379;59.732;30.468;2023-12-20T06:16:23;13.30;;;9.23;;
73168;SDS011;61379;59.732;30.468;2023-12-20T06:18:50;9.45;;;8.70;;
73168;SDS011;61379;59.732;30.468;2023-12-20T06:21:17;12.23;;;8.68;;
73168;SDS011;61379;59.732;30.468;2023-12-20T06:23:46;9.07;;;8.43;;
73168;SDS011;61379;59.732;30.468;2023-12-20T06:26:13;9.15;;;8.52;;
73168;SDS011;61379;59.732;30.468;2023-12-20T06:28:39;9.73;;;9.13;;
73168;SDS011;61379;59.732;30.468;2023-12-20T06:31:06;8.63;;;8.13;;
73168;SDS011;61379;59.732;30.468;2023-12-20T06:33:33;10.35;;;9.13;;
73168;SDS011;61379;59.732;30.468;2023-12-20T06:36:00;8.68;;;8.07;;
73168;SDS011;61379;59.732;30.468;2023-12-20T06:38:27;9.07;;;8.48;;
73168;SDS011;61379;59.732;30.468;2023-12-20T06:40:56;9.65;;;8.88;;
73168;SDS011;61379;59.732;30.468;2023-12-20T06:43:24;8.85;;;8.18;;
73168;SDS011;61379;59.732;30.468;2023-12-20T06:45:50;9.02;;;8.35;;
73168;SDS011;61379;59.732;30.468;2023-12-20T06:48:17;9.35;;;8.75;;
73168;SDS011;61379;59.732;30.468;2023-12-20T06:50:44;9.73;;;9.02;;
73168;SDS011;61379;59.732;30.468;2023-12-20T06:53:11;9.52;;;8.80;;
73168;SDS011;61379;59.732;30.468;2023-12-20T06:55:38;10.13;;;9.30;;
73168;SDS011;61379;59.732;30.468;2023-12-20T06:58:07;9.50;;;8.90;;
73168;SDS011;61379;59.732;30.468;2023-12-20T07:00:34;9.57;;;8.80;;
73168;SDS011;61379;59.732;30.468;2023-12-20T07:03:01;9.90;;;9.30;;
73168;SDS011;61379;59.732;30.468;2023-12-20T07:05:28;9.25;;;8.55;;
73168;SDS011;61379;59.732;30.468;2023-12-20T07:07:54;10.88;;;9.82;;
73168;SDS011;61379;59.732;30.468;2023-12-20T07:10:21;9.82;;;9.05;;
73168;SDS011;61379;59.732;30.468;2023-12-20T07:12:48;9.73;;;8.95;;
73168;SDS011;61379;59.732;30.468;2023-12-20T07:15:17;9.40;;;8.88;;
73168;SDS011;61379;59.732;30.468;2023-12-20T07:17:44;9.98;;;9.18;;
73168;SDS011;61379;59.732;30.468;2023-12-20T07:20:11;10.00;;;9.30;;
73168;SDS011;61379;59.732;30.468;2023-12-20T07:22:39;11.45;;;10.70;;
73168;SDS011;61379;59.732;30.468;2023-12-20T07:25:06;10.95;;;9.65;;
73168;SDS011;61379;59.732;30.468;2023-12-20T07:27:33;9.82;;;9.10;;
73168;SDS011;61379;59.732;30.468;2023-12-20T07:30:00;9.90;;;9.00;;
73168;SDS011;61379;59.732;30.468;2023-12-20T07:32:32;9.10;;;8.43;;
73168;SDS011;61379;59.732;30.468;2023-12-20T07:34:58;9.50;;;8.80;;
73168;SDS011;61379;59.732;30.468;2023-12-20T07:37:25;9.63;;;8.82;;
73168;SDS011;61379;59.732;30.468;2023-12-20T07:39:52;9.70;;;8.95;;
73168;SDS011;61379;59.732;30.468;2023-12-20T07:42:19;9.35;;;8.80;;
73168;SDS011;61379;59.732;30.468;2023-12-20T07:44:47;9.15;;;8.65;;
73168;SDS011;61379;59.732;30.468;2023-12-20T07:47:14;9.30;;;8.70;;
73168;SDS011;61379;59.732;30.468;2023-12-20T07:49:48;8.90;;;8.40;;
73168;SDS011;61379;59.732;30.468;2023-12-20T07:52:16;9.05;;;8.55;;
73168;SDS011;61379;59.732;30.468;2023-12-20T07:54:43;9.98;;;9.27;;
73168;SDS011;61379;59.732;30.468;2023-12-20T08:07:17;8.75;;;8.15;;
73168;SDS011;61379;59.732;30.468;2023-12-20T08:09:44;9.43;;;8.80;;
73168;SDS011;61379;59.732;30.468;2023-12-20T08:12:11;9.48;;;8.57;;
73168;SDS011;61379;59.732;30.468;2023-12-20T08:14:38;8.05;;;7.57;;
73168;SDS011;61379;59.732;30.468;2023-12-20T08:17:05;8.18;;;7.68;;
73168;SDS011;61379;59.732;30.468;2023-12-20T08:19:32;10.35;;;9.07;;
73168;SDS011;61379;59.732;30.468;2023-12-20T08:21:59;9.30;;;8.55;;
73168;SDS011;61379;59.732;30.468;2023-12-20T08:24:27;8.65;;;7.82;;
73168;SDS011;61379;59.732;30.468;2023-12-20T08:26:54;8.98;;;8.38;;
73168;SDS011;61379;59.732;30.468;2023-12-20T08:29:21;8.50;;;8.00;;
73168;SDS011;61379;59.732;30.468;2023-12-20T08:31:51;9.57;;;8.85;;
73168;SDS011;61379;59.732;30.468;2023-12-20T08:34:18;9.35;;;8.68;;
73168;SDS011;61379;59.732;30.468;2023-12-20T08:36:45;9.95;;;9.13;;
73168;SDS011;61379;59.732;30.468;2023-12-20T08:39:12;9.50;;;8.90;;
73168;SDS011;61379;59.732;30.468;2023-12-20T08:41:40;10.07;;;9.23;;
73168;SDS011;61379;59.732;30.468;2023-12-20T08:44:08;10.23;;;9.52;;
73168;SDS011;61379;59.732;30.468;2023-12-20T08:46:34;10.25;;;9.60;;
73168;SDS011;61379;59.732;30.468;2023-12-20T08:49:02;9.63;;;8.98;;
73168;SDS011;61379;59.732;30.468;2023-12-20T08:51:29;9.73;;;8.88;;
73168;SDS011;61379;59.732;30.468;2023-12-20T08:53:56;9.93;;;9.30;;
73168;SDS011;61379;59.732;30.468;2023-12-20T08:56:22;9.43;;;8.82;;
73168;SDS011;61379;59.732;30.468;2023-12-20T08:58:51;10.52;;;9.63;;
73168;SDS011;61379;59.732;30.468;2023-12-20T09:01:18;9.98;;;9.27;;
73168;SDS011;61379;59.732;30.468;2023-12-20T09:03:44;10.27;;;9.23;;
73168;SDS011;61379;59.732;30.468;2023-12-20T09:06:11;10.43;;;9.63;;
73168;SDS011;61379;59.732;30.468;2023-12-20T09:08:38;11.30;;;8.90;;
73168;SDS011;61379;59.732;30.468;2023-12-20T09:11:06;9.77;;;9.18;;
73168;SDS011;61379;59.732;30.468;2023-12-20T09:13:33;9.38;;;8.88;;
73168;SDS011;61379;59.732;30.468;2023-12-20T09:16:02;9.88;;;9.32;;
73168;SDS011;61379;59.732;30.468;2023-12-20T09:18:29;9.68;;;9.05;;
73168;SDS011;61379;59.732;30.468;2023-12-20T09:20:59;9.95;;;9.35;;
73168;SDS011;61379;59.732;30.468;2023-12-20T09:23:25;9.68;;;9.07;;
73168;SDS011;61379;59.732;30.468;2023-12-20T09:25:52;10.15;;;9.30;;
73168;SDS011;61379;59.732;30.468;2023-12-20T09:28:19;9.68;;;9.10;;
73168;SDS011;61379;59.732;30.468;2023-12-20T09:30:46;9.57;;;9.07;;
73168;SDS011;61379;59.732;30.468;2023-12-20T09:33:17;9.32;;;8.73;;
73168;SDS011;61379;59.732;30.468;2023-12-20T09:35:47;9.40;;;8.60;;
73168;SDS011;61379;59.732;30.468;2023-12-20T09:38:14;9.88;;;9.27;;
73168;SDS011;61379;59.732;30.468;2023-12-20T09:40:42;8.43;;;7.82;;
73168;SDS011;61379;59.732;30.468;2023-12-20T09:43:10;8.93;;;8.32;;
73168;SDS011;61379;59.732;30.468;2023-12-20T09:45:38;10.02;;;9.23;;
73168;SDS011;61379;59.732;30.468;2023-12-20T09:48:06;9.10;;;8.60;;
73168;SDS011;61379;59.732;30.468;2023-12-20T09:50:35;9.13;;;8.52;;
73168;SDS011;61379;59.732;30.468;2023-12-20T09:53:02;10.02;;;9.30;;
73168;SDS011;61379;59.732;30.468;2023-12-20T09:55:31;9.10;;;8.60;;
73168;SDS011;61379;59.732;30.468;2023-12-20T09:57:59;8.85;;;8.35;;
73168;SDS011;61379;59.732;30.468;2023-12-20T10:00:26;9.13;;;8.43;;
73168;SDS011;61379;59.732;30.468;2023-12-20T10:02:57;9.00;;;8.50;;
73168;SDS011;61379;59.732;30.468;2023-12-20T10:05:26;9.52;;;8.88;;
73168;SDS011;61379;59.732;30.468;2023-12-20T10:07:54;8.35;;;7.85;;
73168;SDS011;61379;59.732;30.468;2023-12-20T10:10:21;8.65;;;8.00;;
73168;SDS011;61379;59.732;30.468;2023-12-20T10:13:00;9.20;;;8.63;;
73168;SDS011;61379;59.732;30.468;2023-12-20T10:15:27;8.68;;;8.15;;
73168;SDS011;61379;59.732;30.468;2023-12-20T10:17:54;9.98;;;8.30;;
73168;SDS011;61379;59.732;30.468;2023-12-20T10:20:21;9.02;;;8.40;;
73168;SDS011;61379;59.732;30.468;2023-12-20T10:22:48;8.25;;;7.85;;
73168;SDS011;61379;59.732;30.468;2023-12-20T10:25:17;8.73;;;8.23;;
73168;SDS011;61379;59.732;30.468;2023-12-20T10:27:44;8.95;;;8.45;;
73168;SDS011;61379;59.732;30.468;2023-12-20T10:30:11;8.73;;;8.18;;
73168;SDS011;61379;59.732;30.468;2023-12-20T10:32:38;8.70;;;8.15;;
73168;SDS011;61379;59.732;30.468;2023-12-20T10:35:06;8.65;;;8.15;;
73168;SDS011;61379;59.732;30.468;2023-12-20T10:37:34;8.80;;;8.30;;
73168;SDS011;61379;59.732;30.468;2023-12-20T10:40:01;8.65;;;8.15;;
73168;SDS011;61379;59.732;30.468;2023-12-20T10:42:32;11.25;;;8.65;;
73168;SDS011;61379;59.732;30.468;2023-12-20T10:44:59;9.38;;;8.57;;
73168;SDS011;61379;59.732;30.468;2023-12-20T10:47:26;10.35;;;9.63;;
73168;SDS011;61379;59.732;30.468;2023-12-20T10:49:54;9.35;;;8.52;;
73168;SDS011;61379;59.732;30.468;2023-12-20T10:52:22;10.43;;;9.45;;
73168;SDS011;61379;59.732;30.468;2023-12-20T10:54:49;9.45;;;8.73;;
73168;SDS011;61379;59.732;30.468;2023-12-20T10:57:16;8.45;;;7.93;;
73168;SDS011;61379;59.732;30.468;2023-12-20T10:59:46;8.63;;;8.07;;
73168;SDS011;61379;59.732;30.468;2023-12-20T11:02:15;8.77;;;8.18;;
73168;SDS011;61379;59.732;30.468;2023-12-20T11:04:44;8.80;;;8.23;;
73168;SDS011;61379;59.732;30.468;2023-12-20T11:07:17;9.02;;;8.23;;
73168;SDS011;61379;59.732;30.468;2023-12-20T11:09:45;8.60;;;8.10;;
73168;SDS011;61379;59.732;30.468;2023-12-20T11:12:15;8.55;;;8.05;;
73168;SDS011;61379;59.732;30.468;2023-12-20T11:14:45;9.85;;;9.02;;
73168;SDS011;61379;59.732;30.468;2023-12-20T11:17:14;8.52;;;8.02;;
73168;SDS011;61379;59.732;30.468;2023-12-20T11:19:43;8.65;;;8.15;;
73168;SDS011;61379;59.732;30.468;2023-12-20T11:22:31;9.13;;;8.63;;
73168;SDS011;61379;59.732;30.468;2023-12-20T11:24:59;10.88;;;10.00;;
73168;SDS011;61379;59.732;30.468;2023-12-20T11:27:30;9.98;;;9.13;;
73168;SDS011;61379;59.732;30.468;2023-12-20T11:29:58;9.32;;;8.73;;
73168;SDS011;61379;59.732;30.468;2023-12-20T11:32:30;9.45;;;8.73;;
73168;SDS011;61379;59.732;30.468;2023-12-20T11:34:58;9.93;;;9.07;;
73168;SDS011;61379;59.732;30.468;2023-12-20T11:37:28;9.13;;;7.95;;
73168;SDS011;61379;59.732;30.468;2023-12-20T11:39:55;9.77;;;9.02;;
73168;SDS011;61379;59.732;30.468;2023-12-20T11:42:22;9.52;;;8.73;;
73168;SDS011;61379;59.732;30.468;2023-12-20T11:44:50;9.43;;;8.80;;
73168;SDS011;61379;59.732;30.468;2023-12-20T11:47:17;9.20;;;8.50;;
73168;SDS011;61379;59.732;30.468;2023-12-20T11:49:48;9.02;;;8.43;;
73168;SDS011;61379;59.732;30.468;2023-12-20T11:52:16;9.60;;;8.75;;
73168;SDS011;61379;59.732;30.468;2023-12-20T11:54:43;9.25;;;8.55;;
73168;SDS011;61379;59.732;30.468;2023-12-20T11:57:10;9.13;;;8.43;;
73168;SDS011;61379;59.732;30.468;2023-12-20T11:59:37;9.05;;;8.25;;
73168;SDS011;61379;59.732;30.468;2023-12-20T12:02:04;9.57;;;8.95;;
73168;SDS011;61379;59.732;30.468;2023-12-20T12:04:31;9.73;;;8.93;;
73168;SDS011;61379;59.732;30.468;2023-12-20T12:06:59;9.60;;;9.00;;
73168;SDS011;61379;59.732;30.468;2023-12-20T12:09:26;9.13;;;8.52;;
73168;SDS011;61379;59.732;30.468;2023-12-20T12:11:53;9.95;;;9.15;;
73168;SDS011;61379;59.732;30.468;2023-12-20T12:14:20;9.35;;;8.55;;
73168;SDS011;61379;59.732;30.468;2023-12-20T12:16:47;9.90;;;9.10;;
73168;SDS011;61379;59.732;30.468;2023-12-20T12:19:21;9.30;;;8.70;;
73168;SDS011;61379;59.732;30.468;2023-12-20T12:21:48;9.55;;;8.98;;
73168;SDS011;61379;59.732;30.468;2023-12-20T12:24:19;9.52;;;8.85;;
73168;SDS011;61379;59.732;30.468;2023-12-20T12:26:49;7.80;;;7.38;;
73168;SDS011;61379;59.732;30.468;2023-12-20T12:29:16;13.38;;;9.45;;
73168;SDS011;61379;59.732;30.468;2023-12-20T12:31:43;11.48;;;9.60;;
73168;SDS011;61379;59.732;30.468;2023-12-20T12:34:10;9.15;;;8.20;;
73168;SDS011;61379;59.732;30.468;2023-12-20T12:36:37;9.63;;;8.68;;
73168;SDS011;61379;59.732;30.468;2023-12-20T12:39:04;9.13;;;8.27;;
73168;SDS011;61379;59.732;30.468;2023-12-20T12:41:33;8.98;;;8.30;;
73168;SDS011;61379;59.732;30.468;2023-12-20T12:44:00;9.00;;;8.40;;
73168;SDS011;61379;59.732;30.468;2023-12-20T12:46:26;9.40;;;8.57;;
73168;SDS011;61379;59.732;30.468;2023-12-20T12:48:53;8.45;;;8.02;;
73168;SDS011;61379;59.732;30.468;2023-12-20T12:51:21;9.98;;;9.27;;
73168;SDS011;61379;59.732;30.468;2023-12-20T12:53:48;9.45;;;8.88;;
73168;SDS011;61379;59.732;30.468;2023-12-20T12:56:15;9.57;;;8.98;;
73168;SDS011;61379;59.732;30.468;2023-12-20T12:58:43;9.50;;;8.77;;
73168;SDS011;61379;59.732;30.468;2023-12-20T13:01:10;8.35;;;7.75;;
73168;SDS011;61379;59.732;30.468;2023-12-20T13:03:37;9.60;;;8.77;;
73168;SDS011;61379;59.732;30.468;2023-12-20T13:06:05;9.25;;;8.60;;
73168;SDS011;61379;59.732;30.468;2023-12-20T13:08:34;9.18;;;8.57;;
73168;SDS011;61379;59.732;30.468;2023-12-20T13:11:01;9.57;;;8.95;;
73168;SDS011;61379;59.732;30.468;2023-12-20T13:13:29;10.52;;;9.50;;
73168;SDS011;61379;59.732;30.468;2023-12-20T13:15:58;10.10;;;9.55;;
73168;SDS011;61379;59.732;30.468;2023-12-20T13:18:26;9.40;;;8.80;;
73168;SDS011;61379;59.732;30.468;2023-12-20T13:20:54;9.55;;;8.95;;
73168;SDS011;61379;59.732;30.468;2023-12-20T13:23:21;8.48;;;7.97;;
73168;SDS011;61379;59.732;30.468;2023-12-20T13:25:47;8.55;;;8.05;;
73168;SDS011;61379;59.732;30.468;2023-12-20T13:28:14;9.00;;;8.10;;
73168;SDS011;61379;59.732;30.468;2023-12-20T13:30:41;10.57;;;9.70;;
73168;SDS011;61379;59.732;30.468;2023-12-20T13:33:10;9.63;;;8.82;;
73168;SDS011;61379;59.732;30.468;2023-12-20T13:35:37;8.93;;;8.43;;
73168;SDS011;61379;59.732;30.468;2023-12-20T13:38:04;9.10;;;8.38;;
73168;SDS011;61379;59.732;30.468;2023-12-20T13:40:32;8.27;;;7.70;;
73168;SDS011;61379;59.732;30.468;2023-12-20T13:42:59;8.88;;;8.27;;
73168;SDS011;61379;59.732;30.468;2023-12-20T13:45:26;7.47;;;7.07;;
73168;SDS011;61379;59.732;30.468;2023-12-20T13:47:53;9.02;;;8.43;;
73168;SDS011;61379;59.732;30.468;2023-12-20T13:50:21;8.88;;;8.20;;
73168;SDS011;61379;59.732;30.468;2023-12-20T13:52:48;8.43;;;7.72;;
73168;SDS011;61379;59.732;30.468;2023-12-20T13:55:15;7.68;;;6.95;;
73168;SDS011;61379;59.732;30.468;2023-12-20T13:57:43;7.45;;;6.85;;
73168;SDS011;61379;59.732;30.468;2023-12-20T14:00:10;8.07;;;7.50;;
73168;SDS011;61379;59.732;30.468;2023-12-20T14:02:40;7.15;;;6.75;;
73168;SDS011;61379;59.732;30.468;2023-12-20T14:05:07;8.27;;;7.50;;
73168;SDS011;61379;59.732;30.468;2023-12-20T14:07:36;7.32;;;6.72;;
73168;SDS011;61379;59.732;30.468;2023-12-20T14:10:03;7.25;;;6.65;;
73168;SDS011;61379;59.732;30.468;2023-12-20T14:12:31;8.70;;;8.10;;
73168;SDS011;61379;59.732;30.468;2023-12-20T14:15:01;7.43;;;7.03;;
73168;SDS011;61379;59.732;30.468;2023-12-20T14:17:30;8.00;;;7.47;;
73168;SDS011;61379;59.732;30.468;2023-12-20T14:19:57;7.68;;;7.20;;
73168;SDS011;61379;59.732;30.468;2023-12-20T14:22:24;8.00;;;7.47;;
73168;SDS011;61379;59.732;30.468;2023-12-20T14:24:53;8.60;;;7.97;;
73168;SDS011;61379;59.732;30.468;2023-12-20T14:27:19;8.65;;;8.10;;
73168;SDS011;61379;59.732;30.468;2023-12-20T14:32:16;9.00;;;8.32;;
73168;SDS011;61379;59.732;30.468;2023-12-20T14:34:43;8.10;;;7.60;;
73168;SDS011;61379;59.732;30.468;2023-12-20T14:37:10;9.07;;;8.38;;
73168;SDS011;61379;59.732;30.468;2023-12-20T14:39:37;9.50;;;8.60;;
73168;SDS011;61379;59.732;30.468;2023-12-20T14:42:08;10.25;;;9.35;;
73168;SDS011;61379;59.732;30.468;2023-12-20T14:44:37;9.68;;;8.77;;